Time;durP1;ratioP1;P1;durP2;ratioP2;P2;SDS_P1;SDS_P2;PMS_P1;PMS_P2;Temp;Humidity;BMP_temperature;BMP_pressure;BME280_temperature;BME280_humidity;BME280_pressure;Samples;Min_cycle;Max_cycle;Signal;HPM_P1;HPM_P2
2024/01/06 00:00:57;;;;;;;18.80;10.30;;;;;;;-1.13;98.50;100130.11;105728;1259;98593;-79
2024/01/06 00:03:43;;;;;;;17.20;9.80;;;;;;;-1.13;98.62;100130.16;105787;1257;97765;-78
2024/01/06 00:06:29;;;;;;;17.30;9.40;;;;;;;-1.13;98.70;100132.05;105769;1261;102765;-79
2024/01/06 00:09:15;;;;;;;15.00;8.30;;;;;;;-1.16;98.77;100132.48;105882;1260;99256;-79
2024/01/06 00:12:02;;;;;;;18.30;9.80;;;;;;;-1.17;99.09;100134.11;106292;1258;99137;-79
2024/01/06 00:14:48;;;;;;;19.70;8.40;;;;;;;-1.20;99.14;100130.75;106146;1261;97969;-79
2024/01/06 00:17:33;;;;;;;16.40;9.00;;;;;;;-1.25;99.24;100122.38;106706;1261;97873;-79
2024/01/06 00:20:19;;;;;;;18.10;10.30;;;;;;;-1.28;99.47;100118.95;106279;1255;101403;-80
2024/01/06 00:23:05;;;;;;;16.00;8.00;;;;;;;-1.31;99.69;100114.44;106229;1260;100805;-79
2024/01/06 00:25:50;;;;;;;17.60;9.20;;;;;;;-1.33;99.91;100113.21;106340;1255;97970;-80
2024/01/06 00:28:38;;;;;;;17.30;9.70;;;;;;;-1.34;100.00;100110.54;106263;1257;98055;-80
2024/01/06 00:31:23;;;;;;;14.50;8.80;;;;;;;-1.36;100.00;100110.30;106200;1257;98529;-80
2024/01/06 00:34:09;;;;;;;15.50;8.80;;;;;;;-1.37;100.00;100117.77;106081;1261;101384;-79
2024/01/06 00:36:54;;;;;;;17.50;9.70;;;;;;;-1.38;100.00;100117.67;106057;1261;100387;-78
2024/01/06 00:39:40;;;;;;;18.70;9.90;;;;;;;-1.40;100.00;100112.39;105736;1261;98516;-79
2024/01/06 00:42:26;;;;;;;16.80;9.20;;;;;;;-1.40;100.00;100101.19;105662;1256;97977;-79
2024/01/06 00:45:11;;;;;;;17.20;8.60;;;;;;;-1.41;100.00;100089.86;105696;1261;98632;-79
2024/01/06 00:47:57;;;;;;;16.50;9.20;;;;;;;-1.42;100.00;100079.13;105837;1261;101374;-79
2024/01/06 00:50:42;;;;;;;17.00;8.50;;;;;;;-1.42;100.00;100090.01;105698;1261;99813;-79
2024/01/06 00:53:28;;;;;;;17.90;9.30;;;;;;;-1.44;100.00;100097.49;105691;1258;98919;-80
2024/01/06 00:56:13;;;;;;;16.50;9.10;;;;;;;-1.47;100.00;100105.21;106025;1258;97945;-79
2024/01/06 00:58:58;;;;;;;14.90;8.90;;;;;;;-1.49;100.00;100115.41;106179;1261;98009;-79
2024/01/06 01:01:44;;;;;;;15.90;8.90;;;;;;;-1.53;100.00;100116.58;105773;1261;102141;-79
2024/01/06 01:04:30;;;;;;;18.20;9.00;;;;;;;-1.55;100.00;100116.38;105776;1261;100170;-78
2024/01/06 01:07:15;;;;;;;17.40;9.60;;;;;;;-1.56;100.00;100116.66;105918;1258;98093;-79
2024/01/06 01:10:02;;;;;;;20.00;10.10;;;;;;;-1.58;100.00;100114.85;105703;1258;98717;-77
2024/01/06 01:12:47;;;;;;;17.90;9.50;;;;;;;-1.60;100.00;100109.44;106323;1256;97901;-79
2024/01/06 01:15:33;;;;;;;18.00;10.00;;;;;;;-1.60;100.00;100106.62;106300;1255;101401;-79
2024/01/06 01:18:18;;;;;;;19.90;9.00;;;;;;;-1.59;100.00;100104.46;106133;1261;100364;-79
2024/01/06 01:21:04;;;;;;;17.20;9.50;;;;;;;-1.60;100.00;100103.61;105940;1261;99070;-79
2024/01/06 01:23:49;;;;;;;16.90;9.30;;;;;;;-1.62;100.00;100102.05;106346;1256;97988;-80
2024/01/06 01:26:35;;;;;;;15.70;8.90;;;;;;;-1.63;100.00;100108.09;105733;1259;98483;-80
2024/01/06 01:29:21;;;;;;;14.30;8.90;;;;;;;-1.65;100.00;100110.33;105619;1258;102704;-79
2024/01/06 01:32:06;;;;;;;13.40;7.40;;;;;;;-1.66;100.00;100107.44;105861;1258;100198;-80
2024/01/06 01:34:52;;;;;;;15.00;8.90;;;;;;;-1.67;100.00;100108.58;106733;1257;99392;-80
2024/01/06 01:37:37;;;;;;;12.60;7.80;;;;;;;-1.68;100.00;100107.63;106297;1260;98046;-78
2024/01/06 01:40:23;;;;;;;14.80;8.00;;;;;;;-1.68;100.00;100104.13;106149;1258;98696;-80
2024/01/06 01:43:18;;;;;;;13.60;7.30;;;;;;;-1.66;100.00;100108.33;106193;1260;102607;-80
2024/01/06 01:46:04;;;;;;;13.50;7.20;;;;;;;-1.64;100.00;100110.14;106065;1261;99801;-79
2024/01/06 01:48:50;;;;;;;11.80;6.20;;;;;;;-1.63;100.00;100113.69;106182;1257;97879;-80
2024/01/06 01:51:36;;;;;;;13.80;7.70;;;;;;;-1.64;100.00;100112.01;106191;1261;97961;-79
2024/01/06 01:54:22;;;;;;;12.50;6.80;;;;;;;-1.62;100.00;100107.83;106276;1256;97935;-80
2024/01/06 01:57:09;;;;;;;15.70;7.60;;;;;;;-1.59;100.00;100099.39;106270;1261;101432;-79
2024/01/06 01:59:55;;;;;;;14.90;8.00;;;;;;;-1.59;100.00;100095.88;106223;1256;100393;-79
2024/01/06 02:02:40;;;;;;;15.90;7.50;;;;;;;-1.61;100.00;100094.25;106186;1261;99659;-80
2024/01/06 02:05:26;;;;;;;13.20;7.60;;;;;;;-1.60;100.00;100095.23;106268;1258;97952;-80
2024/01/06 02:08:12;;;;;;;15.30;7.20;;;;;;;-1.58;100.00;100096.87;105833;1263;97932;-78
2024/01/06 02:10:57;;;;;;;16.20;8.60;;;;;;;-1.59;100.00;100091.84;105826;1258;102236;-80
2024/01/06 02:13:43;;;;;;;12.10;7.50;;;;;;;-1.62;100.00;100088.56;106021;1259;99210;-78
2024/01/06 02:16:29;;;;;;;14.20;7.70;;;;;;;-1.65;100.00;100079.53;105527;1263;97980;-79
2024/01/06 02:19:16;;;;;;;14.10;8.10;;;;;;;-1.68;100.00;100078.56;105640;1264;97941;-79
2024/01/06 02:22:02;;;;;;;12.90;8.10;;;;;;;-1.69;100.00;100076.70;105571;1256;99293;-79
2024/01/06 02:24:48;;;;;;;16.40;8.50;;;;;;;-1.68;100.00;100071.93;105828;1258;101391;-79
2024/01/06 02:27:33;;;;;;;16.00;8.60;;;;;;;-1.67;100.00;100068.90;105647;1261;99139;-79
2024/01/06 02:30:18;;;;;;;15.20;8.60;;;;;;;-1.67;100.00;100068.55;105674;1259;99055;-80
2024/01/06 02:33:04;;;;;;;13.90;7.40;;;;;;;-1.67;100.00;100070.48;106183;1259;98043;-79
2024/01/06 02:35:50;;;;;;;17.60;8.30;;;;;;;-1.67;100.00;100074.62;106153;1258;98494;-80
2024/01/06 02:38:36;;;;;;;14.70;8.30;;;;;;;-1.66;100.00;100075.61;105646;1261;101546;-80
2024/01/06 02:41:21;;;;;;;19.40;10.30;;;;;;;-1.66;100.00;100072.50;105905;1257;99222;-79
2024/01/06 02:44:08;;;;;;;16.50;9.20;;;;;;;-1.68;100.00;100073.62;105800;1258;97948;-79
2024/01/06 02:46:54;;;;;;;18.30;9.40;;;;;;;-1.69;100.00;100075.30;105511;1261;97872;-79
2024/01/06 02:49:39;;;;;;;18.10;9.70;;;;;;;-1.68;100.00;100075.72;105750;1256;98507;-78
2024/01/06 02:52:25;;;;;;;20.10;9.70;;;;;;;-1.65;100.00;100069.25;105567;1256;102041;-79
2024/01/06 02:55:11;;;;;;;18.80;10.20;;;;;;;-1.62;100.00;100059.55;105600;1261;100525;-79
2024/01/06 02:57:56;;;;;;;18.60;9.50;;;;;;;-1.59;100.00;100059.48;105614;1260;98769;-79
2024/01/06 03:00:42;;;;;;;21.20;10.30;;;;;;;-1.59;100.00;100060.71;105552;1259;98497;-78
2024/01/06 03:03:27;;;;;;;17.20;9.60;;;;;;;-1.61;100.00;100055.58;106010;1259;98388;-80
2024/01/06 03:06:13;;;;;;;16.70;9.30;;;;;;;-1.63;100.00;100054.16;106370;1256;102614;-79
2024/01/06 03:08:59;;;;;;;17.60;9.10;;;;;;;-1.64;100.00;100049.86;106029;1257;99200;-78
2024/01/06 03:11:45;;;;;;;16.20;8.40;;;;;;;-1.63;100.00;100046.86;105636;1261;98404;-79
2024/01/06 03:14:30;;;;;;;16.10;8.40;;;;;;;-1.64;100.00;100048.10;105636;1261;98030;-80
2024/01/06 03:17:16;;;;;;;18.20;9.50;;;;;;;-1.63;100.00;100046.26;105669;1258;97866;-79
2024/01/06 03:20:02;;;;;;;19.10;10.60;;;;;;;-1.61;100.00;100045.26;105631;1260;102298;-79
2024/01/06 03:22:47;;;;;;;19.80;10.30;;;;;;;-1.59;100.00;100058.29;105737;1258;99125;-79
2024/01/06 03:25:32;;;;;;;14.50;8.40;;;;;;;-1.60;100.00;100071.25;105668;1258;98819;-78
2024/01/06 03:28:18;;;;;;;16.60;9.40;;;;;;;-1.60;100.00;100075.64;105599;1259;98073;-78
2024/01/06 03:31:04;;;;;;;16.50;9.50;;;;;;;-1.58;100.00;100082.85;105424;1261;171516;-79
2024/01/06 03:33:49;;;;;;;18.90;10.60;;;;;;;-1.57;100.00;100088.49;105549;1261;101368;-79
2024/01/06 03:36:35;;;;;;;19.20;10.00;;;;;;;-1.56;100.00;100092.29;105689;1258;99205;-78
2024/01/06 03:39:20;;;;;;;17.90;9.50;;;;;;;-1.56;100.00;100100.71;105841;1257;98029;-78
2024/01/06 03:42:06;;;;;;;17.60;9.70;;;;;;;-1.55;100.00;100099.04;106345;1261;97983;-81
2024/01/06 03:44:52;;;;;;;16.30;8.40;;;;;;;-1.54;100.00;100099.02;106259;1261;98453;-80
2024/01/06 03:47:38;;;;;;;17.20;9.60;;;;;;;-1.53;100.00;100091.06;105805;1260;102143;-79
2024/01/06 03:50:24;;;;;;;17.70;9.00;;;;;;;-1.53;100.00;100087.32;105924;1258;99142;-79
2024/01/06 03:53:09;;;;;;;22.00;9.20;;;;;;;-1.52;100.00;100084.34;105872;1261;98061;-78
2024/01/06 03:55:55;;;;;;;17.40;9.80;;;;;;;-1.52;100.00;100077.83;105576;1261;98093;-80
2024/01/06 03:58:41;;;;;;;18.60;9.50;;;;;;;-1.52;100.00;100079.57;105858;1260;98486;-78
2024/01/06 04:01:26;;;;;;;17.30;10.10;;;;;;;-1.53;100.00;100085.41;105651;1259;102694;-78
2024/01/06 04:04:11;;;;;;;16.40;9.20;;;;;;;-1.55;100.00;100088.39;105707;1260;100194;-79
2024/01/06 04:06:57;;;;;;;16.50;9.30;;;;;;;-1.53;100.00;100090.02;105488;1264;99041;-79
2024/01/06 04:09:43;;;;;;;16.10;8.90;;;;;;;-1.51;100.00;100089.45;106064;1261;97827;-78
2024/01/06 04:12:28;;;;;;;17.20;9.00;;;;;;;-1.52;100.00;100078.32;105682;1261;98750;-78
2024/01/06 04:15:14;;;;;;;18.10;9.20;;;;;;;-1.51;100.00;100079.34;105827;1260;101932;-78
2024/01/06 04:18:05;;;;;;;20.10;10.00;;;;;;;-1.53;100.00;100084.02;105676;1261;99101;-79
2024/01/06 04:20:50;;;;;;;19.90;11.50;;;;;;;-1.54;100.00;100087.48;105600;1260;98948;-79
2024/01/06 04:23:35;;;;;;;19.80;11.20;;;;;;;-1.54;100.00;100086.36;105800;1260;99371;-79
2024/01/06 04:26:21;;;;;;;20.50;10.30;;;;;;;-1.55;100.00;100086.23;105667;1269;98420;-78
2024/01/06 04:29:06;;;;;;;20.50;10.70;;;;;;;-1.55;100.00;100083.14;105622;1261;101436;-78
2024/01/06 04:31:52;;;;;;;19.90;10.10;;;;;;;-1.55;100.00;100078.59;106231;1259;99158;-81
2024/01/06 04:34:37;;;;;;;21.30;10.50;;;;;;;-1.55;100.00;100078.56;105982;1261;97691;-78
2024/01/06 04:37:23;;;;;;;19.40;11.50;;;;;;;-1.53;100.00;100079.09;105989;1260;99247;-80
2024/01/06 04:40:10;;;;;;;25.20;11.90;;;;;;;-1.50;100.00;100075.52;106262;1261;98052;-79
2024/01/06 04:42:55;;;;;;;16.30;10.10;;;;;;;-1.50;100.00;100079.94;106351;1260;101426;-79
2024/01/06 04:45:41;;;;;;;18.90;10.60;;;;;;;-1.53;100.00;100082.26;106160;1260;99272;-80
2024/01/06 04:48:26;;;;;;;20.00;11.40;;;;;;;-1.54;100.00;100078.54;106217;1261;98698;-79
2024/01/06 04:51:12;;;;;;;16.80;10.30;;;;;;;-1.57;100.00;100069.08;106281;1260;97879;-79
2024/01/06 04:53:58;;;;;;;19.10;9.80;;;;;;;-1.58;100.00;100065.48;106208;1262;98609;-80
2024/01/06 04:56:43;;;;;;;20.60;11.90;;;;;;;-1.58;100.00;100059.54;106261;1257;101430;-79
2024/01/06 04:59:29;;;;;;;18.60;10.10;;;;;;;-1.60;100.00;100063.89;106231;1257;99150;-79
2024/01/06 05:02:15;;;;;;;19.40;11.00;;;;;;;-1.62;100.00;100074.06;105813;1262;98887;-80
2024/01/06 05:05:00;;;;;;;17.20;10.00;;;;;;;-1.62;100.00;100076.71;106459;1270;98561;-79
2024/01/06 05:07:46;;;;;;;16.90;9.90;;;;;;;-1.62;100.00;100078.08;105917;1269;97948;-78
2024/01/06 05:10:32;;;;;;;24.70;11.50;;;;;;;-1.62;100.00;100079.02;106080;1260;102709;-79
2024/01/06 05:13:17;;;;;;;18.00;9.80;;;;;;;-1.64;100.00;100080.52;106304;1258;99113;-80
2024/01/06 05:16:04;;;;;;;20.20;11.40;;;;;;;-1.66;100.00;100081.95;106182;1260;98640;-79
2024/01/06 05:18:49;;;;;;;17.20;10.40;;;;;;;-1.67;100.00;100084.41;105622;1257;98801;-78
2024/01/06 05:21:35;;;;;;;18.80;10.30;;;;;;;-1.67;100.00;100083.08;105594;1261;97732;-78
2024/01/06 05:24:22;;;;;;;18.20;10.60;;;;;;;-1.68;100.00;100085.89;105684;1261;101340;-79
2024/01/06 05:27:08;;;;;;;18.20;9.70;;;;;;;-1.67;100.00;100092.30;105728;1260;100350;-79
2024/01/06 05:29:54;;;;;;;20.40;11.40;;;;;;;-1.69;100.00;100098.04;105819;1262;98500;-78
2024/01/06 05:32:39;;;;;;;18.30;11.20;;;;;;;-1.69;100.00;100103.54;106077;1257;98018;-79
2024/01/06 05:35:25;;;;;;;18.80;9.70;;;;;;;-1.70;100.00;100108.29;106368;1260;97964;-79
2024/01/06 05:38:11;;;;;;;19.90;11.20;;;;;;;-1.68;100.00;100113.60;106294;1260;104130;-79
2024/01/06 05:40:57;;;;;;;17.90;11.40;;;;;;;-1.68;100.00;100118.81;106209;1261;99139;-78
2024/01/06 05:43:43;;;;;;;22.70;11.30;;;;;;;-1.67;100.00;100112.10;106237;1260;99146;-79
2024/01/06 05:46:28;;;;;;;19.70;11.60;;;;;;;-1.67;100.00;100115.91;106157;1258;97880;-80
2024/01/06 05:49:14;;;;;;;16.40;9.50;;;;;;;-1.69;100.00;100119.23;106197;1258;97881;-80
2024/01/06 05:52:00;;;;;;;19.80;9.90;;;;;;;-1.71;100.00;100118.86;106276;1261;101416;-79
2024/01/06 05:54:45;;;;;;;20.00;10.50;;;;;;;-1.70;100.00;100116.70;106358;1261;99620;-80
2024/01/06 05:57:31;;;;;;;17.80;9.80;;;;;;;-1.72;100.00;100118.43;106230;1258;100315;-80
2024/01/06 06:00:17;;;;;;;18.60;10.90;;;;;;;-1.73;100.00;100122.70;106140;1262;98048;-80
2024/01/06 06:03:03;;;;;;;22.60;11.60;;;;;;;-1.76;100.00;100124.00;106190;1262;98039;-79
2024/01/06 06:05:48;;;;;;;15.90;9.40;;;;;;;-1.78;100.00;100124.54;105991;1258;102803;-79
2024/01/06 06:08:34;;;;;;;19.00;10.50;;;;;;;-1.77;100.00;100132.19;106110;1262;99307;-79
2024/01/06 06:11:20;;;;;;;17.00;9.60;;;;;;;-1.78;100.00;100133.86;106114;1261;99053;-80
2024/01/06 06:14:05;;;;;;;14.80;9.20;;;;;;;-1.80;100.00;100134.83;106029;1261;97892;-79
2024/01/06 06:16:51;;;;;;;22.00;10.10;;;;;;;-1.82;100.00;100140.25;105886;1261;99698;-79
2024/01/06 06:19:37;;;;;;;16.40;10.10;;;;;;;-1.83;100.00;100150.32;105602;1264;101381;-79
2024/01/06 06:22:22;;;;;;;14.90;9.30;;;;;;;-1.82;100.00;100160.41;105687;1260;99090;-79
2024/01/06 06:25:08;;;;;;;17.40;9.70;;;;;;;-1.82;100.00;100169.12;105992;1263;98583;-79
2024/01/06 06:27:53;;;;;;;19.50;11.00;;;;;;;-1.80;100.00;100173.89;105839;1262;97959;-79
2024/01/06 06:30:39;;;;;;;21.20;10.00;;;;;;;-1.78;100.00;100179.34;105971;1258;97934;-78
2024/01/06 06:33:25;;;;;;;18.50;10.30;;;;;;;-1.78;100.00;100181.80;106174;1257;102160;-79
2024/01/06 06:36:11;;;;;;;19.50;10.30;;;;;;;-1.79;100.00;100181.27;106034;1260;108797;-79
2024/01/06 06:38:58;;;;;;;17.80;10.70;;;;;;;-1.78;100.00;100177.02;105560;1261;98644;-78
2024/01/06 06:41:44;;;;;;;20.70;10.30;;;;;;;-1.77;100.00;100171.16;105444;1263;98045;-78
2024/01/06 06:44:30;;;;;;;16.70;9.60;;;;;;;-1.75;100.00;100165.20;105673;1264;97871;-79
2024/01/06 06:47:15;;;;;;;18.80;9.70;;;;;;;-1.74;100.00;100164.27;105587;1257;102346;-79
2024/01/06 06:50:01;;;;;;;15.80;9.00;;;;;;;-1.76;100.00;100163.02;105717;1260;100510;-79
2024/01/06 06:52:47;;;;;;;14.90;8.90;;;;;;;-1.76;100.00;100160.98;105913;1261;97968;-79
2024/01/06 06:55:32;;;;;;;19.70;10.40;;;;;;;-1.77;100.00;100156.69;106047;1260;97967;-80
2024/01/06 06:58:18;;;;;;;18.00;10.40;;;;;;;-1.79;100.00;100166.25;105687;1261;97896;-79
2024/01/06 07:01:05;;;;;;;18.20;10.90;;;;;;;-1.80;100.00;100177.02;105682;1257;102669;-79
2024/01/06 07:03:50;;;;;;;16.40;10.20;;;;;;;-1.81;100.00;100182.84;106712;1258;99165;-79
2024/01/06 07:06:36;;;;;;;16.80;9.40;;;;;;;-1.82;100.00;100185.39;105702;1257;99275;-78
2024/01/06 07:09:23;;;;;;;16.60;9.50;;;;;;;-1.80;100.00;100185.25;105603;1257;97953;-79
2024/01/06 07:12:08;;;;;;;20.00;9.60;;;;;;;-1.79;100.00;100185.85;105696;1265;98095;-78
2024/01/06 07:14:54;;;;;;;15.30;8.80;;;;;;;-1.80;100.00;100187.31;105685;1257;101324;-78
2024/01/06 07:17:39;;;;;;;17.10;10.00;;;;;;;-1.81;100.00;100190.37;106665;1257;101439;-79
2024/01/06 07:20:25;;;;;;;18.70;10.40;;;;;;;-1.81;100.00;100186.04;106238;1257;98488;-79
2024/01/06 07:23:10;;;;;;;19.10;11.20;;;;;;;-1.80;100.00;100188.77;106079;1260;98724;-79
2024/01/06 07:25:56;;;;;;;15.90;8.80;;;;;;;-1.80;100.00;100196.99;106106;1260;97872;-80
2024/01/06 07:28:42;;;;;;;13.60;8.70;;;;;;;-1.81;100.00;100199.67;105998;1260;101340;-78
2024/01/06 07:31:27;;;;;;;17.20;9.70;;;;;;;-1.80;100.00;100205.02;105698;1260;99178;-80
2024/01/06 07:34:13;;;;;;;17.10;9.10;;;;;;;-1.78;100.00;100203.96;105688;1257;97953;-78
2024/01/06 07:36:58;;;;;;;14.90;9.00;;;;;;;-1.77;100.00;100205.30;105780;1261;97994;-79
2024/01/06 07:39:44;;;;;;;16.30;9.10;;;;;;;-1.77;100.00;100208.31;105922;1257;98832;-79
2024/01/06 07:42:29;;;;;;;15.30;8.80;;;;;;;-1.79;100.00;100211.42;105603;1260;101406;-78
2024/01/06 07:45:15;;;;;;;17.80;10.80;;;;;;;-1.79;100.00;100215.80;105695;1260;99986;-80
2024/01/06 07:48:01;;;;;;;16.70;9.70;;;;;;;-1.78;100.00;100215.90;105706;1261;98541;-79
2024/01/06 07:50:47;;;;;;;16.10;9.00;;;;;;;-1.76;100.00;100216.23;105497;1263;97975;-78
2024/01/06 07:53:33;;;;;;;15.40;9.20;;;;;;;-1.74;100.00;100212.11;105625;1257;98441;-77
2024/01/06 07:56:19;;;;;;;14.30;8.80;;;;;;;-1.74;100.00;100212.79;105540;1260;101429;-79
2024/01/06 07:59:04;;;;;;;15.40;8.60;;;;;;;-1.76;100.00;100207.86;105655;1257;99135;-79
2024/01/06 08:01:50;;;;;;;13.40;8.90;;;;;;;-1.77;100.00;100210.35;105581;1257;97983;-78
2024/01/06 08:04:36;;;;;;;15.40;9.00;;;;;;;-1.78;100.00;100213.81;105638;1260;98836;-78
2024/01/06 08:07:22;;;;;;;13.50;8.00;;;;;;;-1.79;100.00;100216.10;105635;1257;98413;-78
2024/01/06 08:10:08;;;;;;;15.90;9.00;;;;;;;-1.77;100.00;100219.81;105534;1263;101440;-78
2024/01/06 08:12:54;;;;;;;14.70;9.00;;;;;;;-1.75;100.00;100226.84;105786;1261;99180;-77
2024/01/06 08:15:40;;;;;;;16.50;9.00;;;;;;;-1.72;100.00;100229.92;105570;1257;98355;-78
2024/01/06 08:18:26;;;;;;;15.70;9.80;;;;;;;-1.71;100.00;100231.77;105670;1257;98006;-79
2024/01/06 08:21:12;;;;;;;16.00;9.00;;;;;;;-1.74;100.00;100236.73;105635;1257;98423;-78
2024/01/06 08:23:57;;;;;;;17.20;8.70;;;;;;;-1.75;100.00;100238.91;106241;1257;101399;-80
2024/01/06 08:26:42;;;;;;;14.90;8.90;;;;;;;-1.74;100.00;100246.35;106129;1260;99232;-80
2024/01/06 08:29:28;;;;;;;14.30;8.60;;;;;;;-1.72;100.00;100249.41;105922;1258;97889;-80
2024/01/06 08:32:14;;;;;;;14.10;8.50;;;;;;;-1.71;100.00;100254.21;106027;1258;97962;-78
2024/01/06 08:35:00;;;;;;;17.20;10.10;;;;;;;-1.70;100.00;100256.39;105744;1257;97875;-77
2024/01/06 08:37:46;;;;;;;15.00;8.90;;;;;;;-1.69;100.00;100261.06;105588;1260;102605;-79
2024/01/06 08:40:31;;;;;;;17.40;8.90;;;;;;;-1.68;100.00;100261.66;105589;1257;100480;-78
2024/01/06 08:43:17;;;;;;;15.90;8.90;;;;;;;-1.66;100.00;100266.95;105625;1258;97957;-78
2024/01/06 08:46:03;;;;;;;16.50;9.40;;;;;;;-1.64;100.00;100271.17;105732;1260;97964;-78
2024/01/06 08:48:48;;;;;;;14.20;8.70;;;;;;;-1.65;100.00;100277.20;105708;1257;98919;-78
2024/01/06 08:51:35;;;;;;;14.00;9.00;;;;;;;-1.65;100.00;100283.48;105658;1258;102645;-78
2024/01/06 08:54:21;;;;;;;13.40;8.60;;;;;;;-1.64;100.00;100284.77;105663;1260;100379;-79
2024/01/06 08:57:06;;;;;;;14.50;9.60;;;;;;;-1.63;100.00;100283.15;106024;1260;99387;-79
2024/01/06 08:59:52;;;;;;;15.80;9.50;;;;;;;-1.62;100.00;100283.06;105835;1260;98061;-79
2024/01/06 09:02:38;;;;;;;15.80;9.30;;;;;;;-1.62;100.00;100281.84;105561;1255;98563;-78
2024/01/06 09:05:23;;;;;;;13.90;8.30;;;;;;;-1.59;100.00;100281.23;106162;1258;101390;-79
2024/01/06 09:08:09;;;;;;;17.50;8.80;;;;;;;-1.58;100.00;100283.11;106109;1261;99197;-79
2024/01/06 09:10:58;;;;;;;18.10;10.20;;;;;;;-1.59;100.00;100280.89;106177;1260;97914;-78
2024/01/06 09:13:43;;;;;;;15.40;9.20;;;;;;;-1.59;100.00;100281.27;105599;1261;97968;-76
2024/01/06 09:16:29;;;;;;;15.60;9.10;;;;;;;-1.58;100.00;100285.08;105598;1258;97550;-75
2024/01/06 09:19:15;;;;;;;16.40;9.60;;;;;;;-1.57;100.00;100285.84;105564;1260;102225;-76
2024/01/06 09:22:00;;;;;;;15.30;8.50;;;;;;;-1.54;100.00;100288.61;105555;1264;99359;-77
2024/01/06 09:24:46;;;;;;;14.30;8.10;;;;;;;-1.54;100.00;100288.23;105546;1258;97985;-77
2024/01/06 09:27:32;;;;;;;12.20;8.00;;;;;;;-1.54;100.00;100290.38;105565;1263;98064;-76
2024/01/06 09:30:18;;;;;;;12.50;8.20;;;;;;;-1.56;100.00;100287.85;105518;1257;97897;-76
2024/01/06 09:33:04;;;;;;;15.90;8.90;;;;;;;-1.54;100.00;100290.58;105562;1261;102033;-77
2024/01/06 09:35:50;;;;;;;14.10;8.90;;;;;;;-1.53;100.00;100288.36;105605;1260;99199;-76
2024/01/06 09:38:36;;;;;;;15.40;8.20;;;;;;;-1.50;100.00;100287.08;105575;1260;97978;-76
2024/01/06 09:41:23;;;;;;;13.50;8.30;;;;;;;-1.51;100.00;100289.97;105559;1257;98054;-77
2024/01/06 09:44:08;;;;;;;12.10;7.60;;;;;;;-1.54;100.00;100290.15;105562;1257;98583;-77
2024/01/06 09:46:58;;;;;;;14.90;9.60;;;;;;;-1.52;100.00;100292.09;105528;1257;102605;-76
2024/01/06 09:49:49;;;;;;;20.50;7.90;;;;;;;-1.50;100.00;100293.35;105450;1257;99225;-76
2024/01/06 09:52:41;;;;;;;14.70;8.10;;;;;;;-1.51;100.00;100297.50;105560;1261;97876;-76
2024/01/06 09:55:27;;;;;;;10.30;6.50;;;;;;;-1.51;100.00;100300.67;105508;1260;98534;-76
2024/01/06 09:58:13;;;;;;;13.30;7.90;;;;;;;-1.52;100.00;100299.84;105533;1257;97882;-75
2024/01/06 10:01:01;;;;;;;12.30;7.10;;;;;;;-1.53;100.00;100300.60;105615;1260;103624;-76
2024/01/06 10:03:47;;;;;;;13.60;8.80;;;;;;;-1.54;100.00;100299.84;105567;1257;100516;-76
2024/01/06 10:06:33;;;;;;;10.50;7.30;;;;;;;-1.53;100.00;100303.10;105532;1260;99269;-77
2024/01/06 10:09:26;;;;;;;14.10;8.20;;;;;;;-1.52;100.00;100304.20;105465;1257;97978;-76
2024/01/06 10:12:11;;;;;;;12.60;7.30;;;;;;;-1.53;100.00;100307.08;105550;1258;98833;-75
2024/01/06 10:14:57;;;;;;;12.00;7.40;;;;;;;-1.54;100.00;100305.25;105526;1260;101406;-76
2024/01/06 10:17:43;;;;;;;10.90;7.00;;;;;;;-1.56;100.00;100308.48;105538;1257;100456;-76
2024/01/06 10:20:29;;;;;;;12.30;7.10;;;;;;;-1.56;100.00;100311.12;105491;1258;98056;-76
2024/01/06 10:23:14;;;;;;;11.20;7.10;;;;;;;-1.52;100.00;100310.89;105484;1260;97987;-76
2024/01/06 10:26:00;;;;;;;10.80;6.80;;;;;;;-1.49;100.00;100311.31;105504;1259;98813;-76
2024/01/06 10:28:49;;;;;;;9.90;6.90;;;;;;;-1.47;100.00;100313.13;105532;1257;101332;-76
2024/01/06 10:31:34;;;;;;;12.00;7.00;;;;;;;-1.49;100.00;100314.68;106163;1258;99738;-76
2024/01/06 10:34:20;;;;;;;11.80;6.90;;;;;;;-1.50;100.00;100311.90;105525;1258;97992;-76
2024/01/06 10:37:06;;;;;;;12.00;6.60;;;;;;;-1.49;100.00;100312.19;105545;1261;98126;-77
2024/01/06 10:40:11;;;;;;;10.50;7.30;;;;;;;-1.48;100.00;100312.85;105554;1258;98010;-76
2024/01/06 10:42:57;;;;;;;10.30;6.60;;;;;;;-1.47;100.00;100317.52;105581;1260;102191;-76
2024/01/06 10:45:43;;;;;;;9.10;6.10;;;;;;;-1.49;100.00;100313.81;105605;1260;99100;-76
2024/01/06 10:48:31;;;;;;;11.70;7.20;;;;;;;-1.50;100.00;100306.16;105511;1257;97962;-76
2024/01/06 10:51:17;;;;;;;9.50;6.50;;;;;;;-1.50;100.00;100309.29;105505;1257;98727;-77
2024/01/06 10:54:04;;;;;;;10.60;6.50;;;;;;;-1.48;100.00;100305.30;105535;1257;97994;-76
2024/01/06 10:56:52;;;;;;;11.20;7.10;;;;;;;-1.47;100.00;100307.67;105625;1261;101353;-76
2024/01/06 10:59:39;;;;;;;13.40;6.70;;;;;;;-1.47;100.00;100311.20;105666;1271;99208;-76
2024/01/06 11:02:26;;;;;;;12.60;8.00;;;;;;;-1.44;100.00;100310.39;105534;1260;98035;-76
2024/01/06 11:05:13;;;;;;;10.40;6.40;;;;;;;-1.40;100.00;100308.87;105487;1263;97972;-76
2024/01/06 11:08:00;;;;;;;13.60;7.60;;;;;;;-1.39;100.00;100309.83;105492;1257;98515;-77
2024/01/06 11:10:47;;;;;;;13.80;8.80;;;;;;;-1.37;100.00;100310.02;105510;1257;102812;-76
2024/01/06 11:13:32;;;;;;;12.40;7.10;;;;;;;-1.34;100.00;100311.58;105549;1257;99115;-76
2024/01/06 11:16:35;;;;;;;13.90;7.30;;;;;;;-1.35;100.00;100312.17;105488;1258;98070;-77
2024/01/06 11:19:36;;;;;;;13.40;7.80;;;;;;;-1.37;100.00;100315.33;105531;1260;97961;-77
2024/01/06 11:22:31;;;;;;;14.20;8.90;;;;;;;-1.41;100.00;100313.48;105558;1258;97942;-77
2024/01/06 11:25:21;;;;;;;13.00;8.50;;;;;;;-1.42;100.00;100313.19;105643;1261;101327;-76
2024/01/06 11:28:08;;;;;;;11.50;7.40;;;;;;;-1.42;100.00;100310.26;105589;1261;99242;-76
2024/01/06 11:31:09;;;;;;;13.90;7.60;;;;;;;-1.41;100.00;100314.02;105592;1257;98558;-77
2024/01/06 11:33:55;;;;;;;15.70;8.40;;;;;;;-1.39;100.00;100314.22;105645;1258;97981;-77
2024/01/06 11:36:40;;;;;;;14.70;7.90;;;;;;;-1.36;100.00;100317.14;105561;1260;98570;-76
2024/01/06 11:39:38;;;;;;;13.20;8.30;;;;;;;-1.35;100.00;100320.03;105550;1257;101438;-76
2024/01/06 11:42:32;;;;;;;14.40;8.80;;;;;;;-1.36;100.00;100321.85;105177;1256;99151;-77
2024/01/06 11:45:17;;;;;;;14.20;8.80;;;;;;;-1.39;100.00;100316.19;105326;1260;97986;-78
2024/01/06 11:48:05;;;;;;;13.70;8.00;;;;;;;-1.43;100.00;100308.75;105649;1258;98086;-76
2024/01/06 11:50:51;;;;;;;14.20;8.30;;;;;;;-1.43;100.00;100305.77;105712;1258;99790;-77
2024/01/06 11:53:37;;;;;;;14.00;8.40;;;;;;;-1.43;100.00;100306.79;105545;1256;102687;-76
2024/01/06 11:56:24;;;;;;;15.10;9.50;;;;;;;-1.43;100.00;100307.89;105576;1260;100044;-76
2024/01/06 11:59:10;;;;;;;15.20;9.10;;;;;;;-1.43;100.00;100313.29;105646;1256;97892;-77
2024/01/06 12:01:55;;;;;;;12.50;8.20;;;;;;;-1.42;100.00;100313.10;105548;1261;99183;-76
2024/01/06 12:04:42;;;;;;;15.00;8.70;;;;;;;-1.43;100.00;100311.92;105608;1256;98407;-77
2024/01/06 12:07:27;;;;;;;14.80;8.50;;;;;;;-1.42;100.00;100311.48;105540;1258;102175;-76
2024/01/06 12:10:14;;;;;;;15.40;9.20;;;;;;;-1.42;100.00;100313.05;105536;1257;100094;-76
2024/01/06 12:13:01;;;;;;;14.60;8.00;;;;;;;-1.43;100.00;100314.70;105504;1257;98981;-76
2024/01/06 12:15:47;;;;;;;14.30;8.90;;;;;;;-1.43;100.00;100317.40;105546;1260;98758;-76
2024/01/06 12:18:33;;;;;;;12.40;7.80;;;;;;;-1.46;100.00;100318.66;105573;1257;99606;-75
2024/01/06 12:21:19;;;;;;;14.10;7.90;;;;;;;-1.46;100.00;100317.56;105759;1256;102694;-75